Time;durP1;ratioP1;P1;durP2;ratioP2;P2;SDS_P1;SDS_P2;PMS_P1;PMS_P2;Temp;Humidity;BMP_temperature;BMP_pressure;BME280_temperature;BME280_humidity;BME280_pressure;Samples;Min_cycle;Max_cycle;Signal;HPM_P1;HPM_P2
2023/09/23 00:00:36;;;;;;;1.40;1.07;;;13.00;99.90;;;;;;5016657;28;20478;-79
2023/09/23 00:03:04;;;;;;;2.00;1.27;;;13.00;99.90;;;;;;5016248;28;20447;-78
2023/09/23 00:05:33;;;;;;;1.57;1.47;;;13.00;99.90;;;;;;5016048;28;20478;-79
2023/09/23 00:08:01;;;;;;;1.73;1.53;;;13.00;99.90;;;;;;5017396;28;20474;-77
2023/09/23 00:10:28;;;;;;;1.60;1.50;;;13.00;99.90;;;;;;5018025;28;20443;-78
2023/09/23 00:12:55;;;;;;;2.53;1.30;;;13.00;99.90;;;;;;5018368;28;20448;-79
2023/09/23 00:15:22;;;;;;;1.47;1.37;;;12.90;99.90;;;;;;5018402;28;20467;-80
2023/09/23 00:17:49;;;;;;;3.53;1.40;;;12.90;99.90;;;;;;5016340;28;20534;-79
2023/09/23 00:20:16;;;;;;;1.40;1.30;;;13.00;99.90;;;;;;5017647;28;20523;-80
2023/09/23 00:22:45;;;;;;;1.80;1.30;;;13.00;99.90;;;;;;5018076;28;20964;-79
2023/09/23 00:25:16;;;;;;;1.30;1.27;;;13.00;99.90;;;;;;5017163;28;20586;-78
2023/09/23 00:27:44;;;;;;;2.23;1.10;;;13.00;99.90;;;;;;5016439;28;20487;-80
2023/09/23 00:30:13;;;;;;;1.27;1.10;;;13.00;99.90;;;;;;5017188;28;20443;-78
2023/09/23 00:32:41;;;;;;;1.23;1.10;;;13.00;99.90;;;;;;5018309;28;20459;-80
2023/09/23 00:35:10;;;;;;;1.60;1.50;;;13.00;99.90;;;;;;5021425;28;21229;-75
2023/09/23 00:37:37;;;;;;;1.67;1.57;;;13.00;99.90;;;;;;5015805;28;20942;-79
2023/09/23 00:40:05;;;;;;;2.13;1.43;;;13.00;99.90;;;;;;5017270;28;20475;-76
2023/09/23 00:42:33;;;;;;;1.80;1.70;;;12.90;99.90;;;;;;5016032;28;20447;-77
2023/09/23 00:44:59;;;;;;;5.20;1.23;;;12.70;99.90;;;;;;5015894;28;21002;-77
2023/09/23 00:47:26;;;;;;;1.50;1.40;;;12.90;99.90;;;;;;5016217;28;20439;-78
2023/09/23 00:49:53;;;;;;;2.63;1.10;;;12.80;99.90;;;;;;5017247;28;20454;-78
2023/09/23 00:52:21;;;;;;;1.53;1.37;;;12.80;99.90;;;;;;5015968;28;20478;-79
2023/09/23 00:54:49;;;;;;;1.00;1.00;;;12.70;99.90;;;;;;5015811;28;20470;-80
2023/09/23 00:57:17;;;;;;;1.80;1.50;;;13.00;99.90;;;;;;5015556;28;20515;-80
2023/09/23 00:59:45;;;;;;;1.40;1.30;;;12.70;99.90;;;;;;5016358;28;20474;-78
2023/09/23 01:02:13;;;;;;;1.63;1.20;;;12.70;99.90;;;;;;5011863;28;20441;-79
2023/09/23 01:04:40;;;;;;;1.90;1.10;;;12.60;99.90;;;;;;4996233;28;20551;-79
2023/09/23 01:07:09;;;;;;;1.17;0.90;;;12.50;99.90;;;;;;4995768;28;20498;-79
2023/09/23 01:09:36;;;;;;;1.10;1.10;;;12.40;99.90;;;;;;4998485;28;20468;-79
2023/09/23 01:12:04;;;;;;;1.40;1.30;;;12.40;99.90;;;;;;4999348;28;20811;-78
2023/09/23 01:14:31;;;;;;;2.50;1.90;;;;;;;;;;4998202;28;20476;-80
2023/09/23 01:17:01;;;;;;;2.43;1.03;;;12.30;99.90;;;;;;4998687;28;20479;-78
2023/09/23 01:19:29;;;;;;;1.30;1.20;;;12.40;99.90;;;;;;4999272;28;20436;-78
2023/09/23 01:21:56;;;;;;;1.10;1.00;;;12.40;99.90;;;;;;4999956;28;20565;-80
2023/09/23 01:24:25;;;;;;;0.97;0.97;;;12.30;99.90;;;;;;4998209;28;21007;-79
2023/09/23 01:26:51;;;;;;;0.93;0.93;;;12.30;99.90;;;;;;4999385;28;20523;-79
2023/09/23 01:29:22;;;;;;;0.80;0.80;;;12.30;99.90;;;;;;4997764;28;20464;-80
2023/09/23 01:32:05;;;;;;;1.37;0.90;;;12.20;99.90;;;;;;4996647;28;21094;-79
2023/09/23 01:34:32;;;;;;;0.70;0.70;;;12.10;99.90;;;;;;4995079;28;20842;-80
2023/09/23 01:36:59;;;;;;;0.80;0.80;;;12.00;99.90;;;;;;4994826;28;20480;-77
2023/09/23 01:39:28;;;;;;;2.17;1.10;;;12.00;99.90;;;;;;4995716;28;20452;-79
2023/09/23 01:41:55;;;;;;;1.03;0.90;;;11.90;99.90;;;;;;4994845;28;20479;-77
2023/09/23 01:44:22;;;;;;;2.13;1.10;;;11.90;99.90;;;;;;4995217;28;20496;-77
2023/09/23 01:46:48;;;;;;;0.87;0.87;;;11.90;99.90;;;;;;4995895;28;20979;-79
2023/09/23 01:49:16;;;;;;;1.10;1.10;;;11.90;99.90;;;;;;4995439;28;20449;-79
2023/09/23 01:51:44;;;;;;;1.63;1.13;;;11.90;99.90;;;;;;4995679;28;20479;-80
2023/09/23 01:54:11;;;;;;;1.67;1.10;;;11.90;99.90;;;;;;4994608;28;20456;-79
2023/09/23 01:56:39;;;;;;;3.47;0.93;;;11.90;99.90;;;;;;5001294;28;20448;-77
2023/09/23 01:59:06;;;;;;;1.10;1.00;;;11.90;99.90;;;;;;5006347;28;20452;-76
2023/09/23 02:01:32;;;;;;;0.97;0.97;;;11.90;99.90;;;;;;5006181;28;20926;-76
2023/09/23 02:03:59;;;;;;;2.17;0.93;;;11.90;99.90;;;;;;5017002;28;21100;-80
2023/09/23 02:06:28;;;;;;;1.00;1.00;;;11.90;99.90;;;;;;5014067;28;20453;-77
2023/09/23 02:08:57;;;;;;;1.73;1.27;;;11.80;99.90;;;;;;5013622;28;20439;-79
2023/09/23 02:11:24;;;;;;;0.80;0.80;;;11.70;99.90;;;;;;5014113;28;20815;-78
2023/09/23 02:13:52;;;;;;;1.30;0.77;;;11.70;99.90;;;;;;5014429;28;20440;-79
2023/09/23 02:16:19;;;;;;;0.80;0.80;;;11.70;99.90;;;;;;5013271;28;20463;-79
2023/09/23 02:18:47;;;;;;;1.33;0.73;;;11.70;99.90;;;;;;5013361;28;20479;-78
2023/09/23 02:21:14;;;;;;;0.90;0.90;;;11.70;99.90;;;;;;5014740;28;20884;-78
2023/09/23 02:23:41;;;;;;;1.60;1.00;;;11.70;99.90;;;;;;5019118;28;20427;-77
2023/09/23 02:26:08;;;;;;;1.00;1.00;;;11.70;99.90;;;;;;5036277;28;20513;-75
2023/09/23 02:28:35;;;;;;;1.27;1.00;;;11.70;99.90;;;;;;5025846;28;20456;-79
2023/09/23 02:31:03;;;;;;;1.00;0.80;;;11.70;99.90;;;;;;5014725;28;20447;-79
2023/09/23 02:33:30;;;;;;;1.53;1.20;;;11.70;99.90;;;;;;5014002;28;20436;-78
2023/09/23 02:35:57;;;;;;;0.97;0.97;;;11.60;99.90;;;;;;5013583;28;20472;-78
2023/09/23 02:38:24;;;;;;;1.40;0.93;;;11.60;99.90;;;;;;5014809;28;20566;-77
2023/09/23 02:40:53;;;;;;;1.03;1.03;;;11.60;99.90;;;;;;5014063;28;20447;-79
2023/09/23 02:43:20;;;;;;;0.80;0.80;;;11.60;99.90;;;;;;5014593;28;20498;-78
2023/09/23 02:45:49;;;;;;;1.13;0.90;;;11.50;99.90;;;;;;5013785;28;20467;-79
2023/09/23 02:48:17;;;;;;;0.83;0.83;;;11.50;99.90;;;;;;5014037;28;20443;-77
2023/09/23 02:50:45;;;;;;;0.80;0.80;;;11.50;99.90;;;;;;5013879;28;20463;-80
2023/09/23 02:53:11;;;;;;;1.23;1.00;;;11.50;99.90;;;;;;5014940;28;20451;-79
2023/09/23 02:55:41;;;;;;;3.43;0.90;;;11.50;99.90;;;;;;5013085;28;20463;-79
2023/09/23 02:58:10;;;;;;;1.23;0.93;;;11.50;99.90;;;;;;5013830;28;20577;-79
2023/09/23 03:00:37;;;;;;;0.90;0.90;;;11.50;99.90;;;;;;5013630;28;20539;-78
2023/09/23 03:03:08;;;;;;;0.90;0.90;;;11.50;99.90;;;;;;5003425;28;20443;-79
2023/09/23 03:05:38;;;;;;;1.00;1.00;;;11.50;99.90;;;;;;4994558;28;20464;-78
2023/09/23 03:08:07;;;;;;;1.50;1.40;;;11.50;99.90;;;;;;5009636;28;20527;-79
2023/09/23 03:10:39;;;;;;;0.93;0.93;;;11.50;99.90;;;;;;5013751;28;20443;-78
2023/09/23 03:13:07;;;;;;;0.80;0.80;;;11.50;99.90;;;;;;5014392;28;20436;-78
2023/09/23 03:15:41;;;;;;;1.20;1.20;;;11.40;99.90;;;;;;5013328;28;20490;-78
2023/09/23 03:18:09;;;;;;;0.90;0.90;;;11.50;99.90;;;;;;5013730;28;20525;-79
2023/09/23 03:20:39;;;;;;;1.07;1.07;;;11.40;99.90;;;;;;5015968;28;20542;-78
2023/09/23 03:23:10;;;;;;;0.90;0.90;;;11.40;99.90;;;;;;5017429;28;20440;-79
2023/09/23 03:25:44;;;;;;;1.13;1.10;;;11.40;99.90;;;;;;5017195;28;20486;-79
2023/09/23 03:28:11;;;;;;;1.30;1.20;;;11.40;99.90;;;;;;5017635;28;20431;-80
2023/09/23 03:30:37;;;;;;;0.93;0.93;;;11.40;99.90;;;;;;5017833;28;20443;-78
2023/09/23 03:33:05;;;;;;;1.20;1.10;;;11.40;99.90;;;;;;5016926;28;20431;-79
2023/09/23 03:35:37;;;;;;;1.27;0.97;;;11.40;99.90;;;;;;5017254;28;20525;-78
2023/09/23 03:38:03;;;;;;;1.00;1.00;;;11.40;99.90;;;;;;5017872;28;20494;-77
2023/09/23 03:40:31;;;;;;;2.23;1.00;;;11.40;99.90;;;;;;5017939;28;20450;-78
2023/09/23 03:42:57;;;;;;;0.93;0.93;;;11.30;99.90;;;;;;5017055;28;20933;-77
2023/09/23 03:45:24;;;;;;;0.70;0.70;;;11.30;99.90;;;;;;5016841;28;20503;-78
2023/09/23 03:47:51;;;;;;;4.23;1.07;;;11.30;99.90;;;;;;5017092;28;20435;-80
2023/09/23 03:50:18;;;;;;;1.20;1.17;;;11.30;99.90;;;;;;5017299;28;20967;-78
2023/09/23 03:52:46;;;;;;;1.13;0.93;;;11.30;99.90;;;;;;5017659;28;21075;-79
2023/09/23 03:55:13;;;;;;;1.20;1.20;;;11.30;99.90;;;;;;5017322;28;20490;-79
2023/09/23 03:57:40;;;;;;;1.00;1.00;;;11.20;99.90;;;;;;5017571;28;20483;-78
2023/09/23 04:00:15;;;;;;;0.73;0.73;;;11.20;99.90;;;;;;5017043;28;20792;-79
2023/09/23 04:02:43;;;;;;;1.03;1.03;;;11.20;99.90;;;;;;5017349;28;20828;-77
2023/09/23 04:05:10;;;;;;;1.30;1.20;;;11.20;99.90;;;;;;5016816;28;20494;-76
2023/09/23 04:07:39;;;;;;;2.00;1.30;;;11.20;99.90;;;;;;5016385;28;20883;-77
2023/09/23 04:10:09;;;;;;;1.33;1.20;;;11.20;99.90;;;;;;5016624;28;20514;-79
2023/09/23 04:12:37;;;;;;;1.50;1.40;;;11.20;99.90;;;;;;5015610;28;20547;-79
2023/09/23 04:15:05;;;;;;;2.20;0.90;;;11.20;99.90;;;;;;5015112;28;20490;-77
2023/09/23 04:17:31;;;;;;;2.10;1.10;;;11.10;99.90;;;;;;5015134;28;20474;-80
2023/09/23 04:19:58;;;;;;;1.70;1.07;;;11.20;99.90;;;;;;5016887;28;20459;-78
2023/09/23 04:22:25;;;;;;;1.00;1.00;;;11.10;99.90;;;;;;5016223;28;20440;-78
2023/09/23 04:24:51;;;;;;;1.00;1.00;;;11.10;99.90;;;;;;5015778;28;20459;-80
2023/09/23 04:27:20;;;;;;;1.13;1.13;;;11.10;99.90;;;;;;5015833;28;20628;-79
2023/09/23 04:29:47;;;;;;;1.07;1.00;;;11.10;99.90;;;;;;5016470;28;20460;-77
2023/09/23 04:32:14;;;;;;;1.63;1.10;;;11.10;99.90;;;;;;5015452;28;20447;-78
2023/09/23 04:34:41;;;;;;;1.20;1.20;;;11.10;99.90;;;;;;5018486;28;20466;-79
2023/09/23 04:37:07;;;;;;;1.60;1.10;;;11.10;99.90;;;;;;5016518;28;20443;-78
2023/09/23 04:39:34;;;;;;;1.20;0.93;;;11.10;99.90;;;;;;5015813;28;20919;-77
2023/09/23 04:42:03;;;;;;;1.80;1.03;;;11.10;99.90;;;;;;5016334;28;20527;-79
2023/09/23 04:44:33;;;;;;;2.60;1.30;;;11.10;99.90;;;;;;5016236;28;20582;-78
2023/09/23 04:47:00;;;;;;;1.03;1.03;;;11.10;99.90;;;;;;5015897;28;20450;-79
2023/09/23 04:49:27;;;;;;;1.47;1.37;;;11.10;99.90;;;;;;5016073;28;20440;-79
2023/09/23 04:51:54;;;;;;;1.60;1.20;;;11.10;99.90;;;;;;5014664;28;20482;-77
2023/09/23 04:54:22;;;;;;;7.47;1.50;;;11.10;99.90;;;;;;5014477;28;20455;-77
2023/09/23 04:56:49;;;;;;;1.03;1.03;;;11.10;99.90;;;;;;5015979;28;20451;-79
2023/09/23 04:59:15;;;;;;;1.10;1.00;;;11.10;99.90;;;;;;5015924;28;20486;-78
2023/09/23 05:01:43;;;;;;;1.03;1.03;;;11.10;99.90;;;;;;5015792;28;20933;-79
2023/09/23 05:04:10;;;;;;;2.67;1.30;;;11.10;99.90;;;;;;5016765;28;20490;-81
2023/09/23 05:06:37;;;;;;;2.47;1.50;;;11.10;99.90;;;;;;5015483;28;20448;-79
2023/09/23 05:09:04;;;;;;;1.63;1.47;;;11.40;99.90;;;;;;5015852;28;20444;-79
2023/09/23 05:11:31;;;;;;;1.10;1.10;;;11.10;99.90;;;;;;5014678;28;20454;-79
2023/09/23 05:13:58;;;;;;;1.30;1.20;;;11.10;99.90;;;;;;5015209;28;20451;-79
2023/09/23 05:16:24;;;;;;;1.20;1.20;;;11.10;99.90;;;;;;5015455;28;20829;-80
2023/09/23 05:18:53;;;;;;;1.30;1.17;;;11.10;99.90;;;;;;5015738;28;20479;-78
2023/09/23 05:21:20;;;;;;;1.63;1.20;;;11.10;99.90;;;;;;5015823;28;20812;-78
2023/09/23 05:23:49;;;;;;;1.47;1.37;;;11.20;99.90;;;;;;5015752;28;20439;-79
2023/09/23 05:26:16;;;;;;;2.87;1.30;;;11.20;99.90;;;;;;5014907;28;20531;-78
2023/09/23 05:28:42;;;;;;;1.10;1.10;;;11.10;99.90;;;;;;5016374;28;20448;-80
2023/09/23 05:31:09;;;;;;;1.47;1.30;;;11.10;99.90;;;;;;5014862;28;20443;-79
2023/09/23 05:33:37;;;;;;;1.40;1.10;;;11.20;99.90;;;;;;5015963;28;20447;-77
2023/09/23 05:36:06;;;;;;;1.47;1.37;;;11.20;99.90;;;;;;5015627;28;20463;-78
2023/09/23 05:38:36;;;;;;;1.20;1.20;;;11.40;99.90;;;;;;5015192;28;20550;-78
2023/09/23 05:41:03;;;;;;;1.40;1.30;;;11.20;99.90;;;;;;5014970;28;20450;-79
2023/09/23 05:43:30;;;;;;;1.70;1.60;;;11.20;99.90;;;;;;5014822;28;20454;-80
2023/09/23 05:45:56;;;;;;;5.00;1.60;;;11.30;99.90;;;;;;5015324;28;20463;-78
2023/09/23 05:48:24;;;;;;;1.20;1.20;;;11.30;99.90;;;;;;5015675;28;20944;-79
2023/09/23 05:50:52;;;;;;;2.40;1.30;;;11.30;99.90;;;;;;5016635;28;20449;-78
2023/09/23 05:53:20;;;;;;;1.30;1.20;;;11.40;99.90;;;;;;5018740;28;20511;-77
2023/09/23 05:55:47;;;;;;;1.43;1.33;;;11.40;99.90;;;;;;5019325;28;20474;-79
2023/09/23 05:58:13;;;;;;;1.27;1.20;;;11.40;99.90;;;;;;5018469;28;20452;-78
2023/09/23 06:00:40;;;;;;;1.23;1.00;;;11.40;99.90;;;;;;5015960;28;20470;-78
2023/09/23 06:03:07;;;;;;;1.50;1.07;;;11.40;99.90;;;;;;5004736;28;20449;-79
2023/09/23 06:05:34;;;;;;;1.27;1.20;;;11.40;99.90;;;;;;4995155;28;20468;-78
2023/09/23 06:08:01;;;;;;;1.03;1.03;;;11.40;99.90;;;;;;5013938;28;20480;-74
2023/09/23 06:10:31;;;;;;;1.30;1.00;;;11.40;99.90;;;;;;5011447;28;20452;-78
2023/09/23 06:12:58;;;;;;;1.30;1.20;;;11.50;99.90;;;;;;4998084;28;20461;-77
2023/09/23 06:15:26;;;;;;;1.27;1.00;;;11.80;99.90;;;;;;4996086;28;20998;-76
2023/09/23 06:17:53;;;;;;;1.47;1.37;;;11.60;99.90;;;;;;4995169;28;20462;-78
2023/09/23 06:20:19;;;;;;;3.13;1.00;;;11.60;99.90;;;;;;4995022;28;20484;-78
2023/09/23 06:22:46;;;;;;;1.53;1.33;;;11.60;99.90;;;;;;4994895;28;20448;-78
2023/09/23 06:25:13;;;;;;;1.77;1.67;;;11.60;99.90;;;;;;4995010;28;20480;-77
2023/09/23 06:27:42;;;;;;;1.70;1.70;;;11.70;99.90;;;;;;4994705;28;20455;-78
2023/09/23 06:30:10;;;;;;;3.77;1.33;;;11.70;99.90;;;;;;4994948;28;20440;-77
2023/09/23 06:32:37;;;;;;;1.50;1.40;;;11.80;99.90;;;;;;4993655;28;20455;-78
2023/09/23 06:35:03;;;;;;;2.07;1.20;;;11.80;99.90;;;;;;4994223;28;20464;-78
2023/09/23 06:37:32;;;;;;;1.37;1.00;;;11.90;99.90;;;;;;4994637;28;21005;-78
2023/09/23 06:39:59;;;;;;;1.00;1.00;;;11.90;99.90;;;;;;4994294;28;20578;-78
2023/09/23 06:42:25;;;;;;;1.30;1.30;;;11.90;99.90;;;;;;4994570;28;20440;-79
2023/09/23 06:44:53;;;;;;;1.60;1.50;;;12.00;99.90;;;;;;4994703;28;20468;-80
2023/09/23 06:47:21;;;;;;;1.10;1.10;;;12.00;99.90;;;;;;4995609;28;20448;-79
2023/09/23 06:49:47;;;;;;;1.60;1.17;;;12.10;99.90;;;;;;4996138;28;20480;-77
2023/09/23 06:52:14;;;;;;;3.20;1.60;;;12.20;99.90;;;;;;4995282;28;20455;-77
2023/09/23 06:54:41;;;;;;;1.27;1.17;;;12.30;99.90;;;;;;4997882;28;20459;-79
2023/09/23 06:57:08;;;;;;;1.50;1.40;;;12.40;99.90;;;;;;4998894;28;20440;-79
2023/09/23 06:59:34;;;;;;;1.13;1.13;;;12.50;99.90;;;;;;4998895;28;20488;-79
2023/09/23 07:02:03;;;;;;;1.33;1.23;;;12.60;99.90;;;;;;5002327;28;20528;-81
2023/09/23 07:04:29;;;;;;;1.60;1.50;;;12.70;99.90;;;;;;5018632;28;20467;-78
2023/09/23 07:06:56;;;;;;;1.20;0.97;;;12.80;99.90;;;;;;5018295;28;20558;-81
2023/09/23 07:09:23;;;;;;;1.17;1.07;;;12.90;99.90;;;;;;5018832;28;20439;-82
2023/09/23 07:11:50;;;;;;;1.30;1.20;;;13.10;99.90;;;;;;5019542;28;20447;-79
2023/09/23 07:14:17;;;;;;;1.10;1.07;;;13.30;99.90;;;;;;5019467;28;20546;-79
2023/09/23 07:16:43;;;;;;;1.30;1.13;;;13.30;99.90;;;;;;5019824;28;20458;-80
2023/09/23 07:19:11;;;;;;;1.30;1.10;;;13.50;99.90;;;;;;5019254;28;20518;-79
2023/09/23 07:21:38;;;;;;;3.57;1.30;;;13.50;99.90;;;;;;5018910;28;20435;-80
2023/09/23 07:24:05;;;;;;;1.27;1.17;;;13.50;99.90;;;;;;5018013;28;20443;-80
2023/09/23 07:26:32;;;;;;;1.63;1.40;;;;;;;;;;5017374;28;20947;-78
2023/09/23 07:28:59;;;;;;;1.70;1.10;;;13.90;99.90;;;;;;5017410;28;20435;-80
2023/09/23 07:31:26;;;;;;;1.87;1.37;;;14.00;99.90;;;;;;5018334;28;20459;-80
2023/09/23 07:33:53;;;;;;;2.20;1.27;;;14.10;99.90;;;;;;5025274;28;20447;-75
2023/09/23 07:36:21;;;;;;;3.43;1.50;;;14.50;99.90;;;;;;5036238;28;20463;-77
2023/09/23 07:38:47;;;;;;;1.30;1.20;;;14.80;99.90;;;;;;5034410;28;20533;-76
2023/09/23 07:41:14;;;;;;;1.80;1.13;;;14.70;99.90;;;;;;5035156;28;20447;-79
2023/09/23 07:43:41;;;;;;;1.23;0.90;;;14.70;99.90;;;;;;5033910;28;20448;-77
2023/09/23 07:46:08;;;;;;;0.70;0.70;;;15.00;99.90;;;;;;5037509;28;20551;-76
2023/09/23 07:48:34;;;;;;;2.00;1.43;;;15.30;99.90;;;;;;5026132;28;20816;-78
2023/09/23 07:51:01;;;;;;;1.23;1.13;;;15.50;99.90;;;;;;5017423;28;20443;-81
2023/09/23 07:53:29;;;;;;;1.33;1.23;;;16.00;99.90;;;;;;5016554;28;20966;-81
2023/09/23 07:55:56;;;;;;;1.20;1.10;;;15.90;99.90;;;;;;5017195;28;20464;-80
2023/09/23 07:58:23;;;;;;;1.30;0.93;;;15.80;99.90;;;;;;5017237;28;20455;-80
2023/09/23 08:00:49;;;;;;;2.50;0.80;;;15.70;99.90;;;;;;5018075;28;20478;-79
2023/09/23 08:03:16;;;;;;;1.73;1.20;;;15.80;99.90;;;;;;5004566;28;20437;-80
2023/09/23 08:05:43;;;;;;;1.50;1.30;;;15.50;99.90;;;;;;4996716;28;20899;-81
2023/09/23 08:08:10;;;;;;;2.77;0.80;;;15.30;99.90;;;;;;4998552;28;20476;-79
2023/09/23 08:10:38;;;;;;;0.80;0.80;;;15.40;99.90;;;;;;4999125;28;20436;-80
2023/09/23 08:13:05;;;;;;;1.33;1.13;;;15.50;99.90;;;;;;4998647;28;20448;-80
2023/09/23 08:15:32;;;;;;;1.10;1.00;;;15.80;99.90;;;;;;4999171;28;20464;-80
2023/09/23 08:17:58;;;;;;;2.30;1.10;;;16.10;99.90;;;;;;4997922;28;20456;-80
2023/09/23 08:20:26;;;;;;;1.60;0.90;;;16.20;99.90;;;;;;4997636;28;20484;-79
2023/09/23 08:22:53;;;;;;;1.20;1.10;;;16.30;99.90;;;;;;5004214;28;20547;-80
2023/09/23 08:25:20;;;;;;;1.87;1.17;;;16.20;99.90;;;;;;4999962;28;20484;-77
2023/09/23 08:27:48;;;;;;;1.43;1.00;;;16.50;99.90;;;;;;5001363;28;20468;-80
2023/09/23 08:30:15;;;;;;;0.80;0.80;;;16.70;99.90;;;;;;4997533;28;20445;-81
2023/09/23 08:32:42;;;;;;;1.10;0.90;;;16.50;99.90;;;;;;4997322;28;20510;-79
2023/09/23 08:35:09;;;;;;;1.23;1.13;;;16.30;99.90;;;;;;4997353;28;20543;-80
2023/09/23 08:37:36;;;;;;;0.70;0.70;;;16.50;99.90;;;;;;4997625;28;20455;-79
2023/09/23 08:40:07;;;;;;;1.00;1.00;;;16.90;99.90;;;;;;4997499;28;20502;-80
2023/09/23 08:42:35;;;;;;;0.80;0.80;;;17.20;99.90;;;;;;4998220;28;20454;-81
2023/09/23 08:45:06;;;;;;;1.20;0.90;;;17.60;99.90;;;;;;4997391;28;20464;-79
2023/09/23 08:47:35;;;;;;;2.57;1.00;;;17.50;99.90;;;;;;5007970;28;20444;-77
2023/09/23 08:50:03;;;;;;;1.13;1.03;;;17.30;99.90;;;;;;5031933;28;20819;-78
2023/09/23 08:52:33;;;;;;;2.33;1.23;;;17.40;99.90;;;;;;5033701;28;20475;-76
2023/09/23 08:55:01;;;;;;;1.80;1.07;;;17.70;99.90;;;;;;5032465;28;20466;-78
2023/09/23 08:57:29;;;;;;;1.43;1.20;;;17.80;99.90;;;;;;5031389;28;20470;-77
2023/09/23 08:59:56;;;;;;;1.20;1.10;;;18.20;99.90;;;;;;5037182;28;20459;-79
2023/09/23 09:02:25;;;;;;;0.70;0.70;;;18.30;99.90;;;;;;5027347;28;20441;-77
2023/09/23 09:04:54;;;;;;;1.13;0.80;;;18.50;99.90;;;;;;5031408;28;20461;-77
2023/09/23 09:07:24;;;;;;;1.50;1.00;;;18.10;99.90;;;;;;5033476;28;20471;-75
2023/09/23 09:09:51;;;;;;;1.30;1.00;;;18.20;99.90;;;;;;5033408;28;20447;-76
2023/09/23 09:12:17;;;;;;;1.43;0.70;;;18.40;99.90;;;;;;5034330;28;20451;-78
2023/09/23 09:14:49;;;;;;;1.10;1.10;;;18.40;99.90;;;;;;5032261;28;20455;-77
2023/09/23 09:17:16;;;;;;;1.17;0.90;;;18.70;99.90;;;;;;5032207;28;20445;-79
2023/09/23 09:19:44;;;;;;;1.20;1.10;;;19.10;99.90;;;;;;5032167;28;20468;-78
2023/09/23 09:22:11;;;;;;;1.10;0.93;;;19.30;99.90;;;;;;5030197;28;20447;-77
2023/09/23 09:24:38;;;;;;;1.90;1.00;;;19.40;99.90;;;;;;5031198;28;20493;-79
2023/09/23 09:27:11;;;;;;;3.27;0.93;;;18.90;99.90;;;;;;5026482;28;20458;-82
2023/09/23 09:29:38;;;;;;;3.30;1.13;;;18.90;99.90;;;;;;5019380;28;20444;-80
2023/09/23 09:32:07;;;;;;;1.00;0.90;;;19.10;99.90;;;;;;5018349;28;20455;-78
2023/09/23 09:34:45;;;;;;;1.33;1.20;;;19.20;99.90;;;;;;5018869;28;20478;-80
2023/09/23 09:37:13;;;;;;;1.47;1.30;;;19.80;99.90;;;;;;5019208;28;20432;-81
2023/09/23 09:39:47;;;;;;;3.27;1.10;;;19.60;99.90;;;;;;5019029;28;20541;-81
2023/09/23 09:42:20;;;;;;;2.40;1.10;;;19.70;99.90;;;;;;5018116;28;20455;-81
2023/09/23 09:44:48;;;;;;;1.07;0.90;;;20.10;99.90;;;;;;5018338;28;20474;-80
2023/09/23 09:47:17;;;;;;;2.00;0.80;;;19.90;99.90;;;;;;5027216;28;20440;-79
2023/09/23 09:49:47;;;;;;;0.90;0.90;;;19.90;99.90;;;;;;5017601;28;20448;-79
2023/09/23 09:52:14;;;;;;;1.63;0.90;;;20.00;99.90;;;;;;5023716;28;20443;-80
2023/09/23 09:54:42;;;;;;;1.00;1.00;;;19.70;99.90;;;;;;5025823;28;20465;-81
2023/09/23 09:57:12;;;;;;;1.60;0.90;;;19.50;99.90;;;;;;5023447;28;20509;-81
2023/09/23 09:59:43;;;;;;;1.20;1.10;;;20.00;99.90;;;;;;5023348;28;20587;-81
2023/09/23 10:02:10;;;;;;;1.63;1.30;;;20.30;99.90;;;;;;5018251;28;20451;-78
2023/09/23 10:04:37;;;;;;;1.30;1.10;;;20.40;99.90;;;;;;5025710;28;20521;-78
2023/09/23 10:07:08;;;;;;;2.30;1.20;;;20.10;99.90;;;;;;5022686;28;20446;-78
2023/09/23 10:09:38;;;;;;;1.67;1.03;;;20.00;99.90;;;;;;5023161;28;20900;-81
2023/09/23 10:12:07;;;;;;;1.80;1.00;;;20.10;99.90;;;;;;5025290;28;20901;-80
2023/09/23 10:14:33;;;;;;;1.40;1.30;;;20.20;99.90;;;;;;5026007;28;20466;-78
2023/09/23 10:17:04;;;;;;;1.30;0.60;;;20.00;99.90;;;;;;5012190;28;20440;-79
2023/09/23 10:19:32;;;;;;;1.87;1.07;;;20.50;99.90;;;;;;5023641;28;20440;-79
2023/09/23 10:22:11;;;;;;;1.47;0.80;;;20.80;99.90;;;;;;5021337;28;21017;-77
2023/09/23 10:24:38;;;;;;;1.47;1.00;;;21.70;99.90;;;;;;5024622;28;20456;-78
2023/09/23 10:27:05;;;;;;;2.60;1.00;;;21.70;99.90;;;;;;5024490;28;20451;-80
2023/09/23 10:29:42;;;;;;;1.30;0.90;;;21.30;99.90;;;;;;5025269;28;20434;-79
2023/09/23 10:32:14;;;;;;;1.87;1.10;;;21.00;99.90;;;;;;5016651;28;20443;-81
2023/09/23 10:34:48;;;;;;;2.30;0.83;;;21.20;99.90;;;;;;5023913;28;20468;-78
2023/09/23 10:37:30;;;;;;;1.80;1.00;;;21.20;99.90;;;;;;5012908;28;20896;-79
2023/09/23 10:40:00;;;;;;;1.10;1.00;;;21.50;99.90;;;;;;5016275;28;20484;-80
2023/09/23 10:42:27;;;;;;;1.20;1.10;;;21.20;99.90;;;;;;5023128;28;20440;-80
2023/09/23 10:44:58;;;;;;;2.80;0.80;;;20.70;99.90;;;;;;5016873;28;20467;-81
2023/09/23 10:47:25;;;;;;;1.10;1.00;;;20.10;99.90;;;;;;5027197;28;20442;-81
2023/09/23 10:49:52;;;;;;;2.07;0.90;;;19.80;99.90;;;;;;5025182;28;20446;-82
2023/09/23 10:52:20;;;;;;;1.40;1.20;;;20.00;99.90;;;;;;5023434;28;20448;-81
2023/09/23 10:54:49;;;;;;;1.67;1.10;;;20.50;99.90;;;;;;5022642;28;20541;-82
2023/09/23 10:57:16;;;;;;;1.93;1.00;;;20.60;99.90;;;;;;5014614;28;20442;-83
2023/09/23 10:59:43;;;;;;;1.40;1.10;;;21.00;99.90;;;;;;5019583;28;20462;-82
2023/09/23 11:02:11;;;;;;;1.10;0.87;;;20.70;99.90;;;;;;5013230;28;20511;-84
2023/09/23 11:04:37;;;;;;;2.30;1.30;;;21.00;99.90;;;;;;5020565;28;20470;-81
2023/09/23 11:07:04;;;;;;;3.30;1.27;;;20.80;99.90;;;;;;5025795;28;20443;-81
2023/09/23 11:09:31;;;;;;;2.50;1.10;;;20.30;99.90;;;;;;5027756;28;20438;-80
2023/09/23 11:12:10;;;;;;;2.77;1.20;;;19.80;99.90;;;;;;5024757;28;20442;-82
2023/09/23 11:14:37;;;;;;;1.87;0.80;;;19.10;99.90;;;;;;5025393;28;20892;-81
2023/09/23 11:17:05;;;;;;;2.23;1.27;;;19.00;99.90;;;;;;5019442;28;20462;-82
2023/09/23 11:28:58;;;;;;;3.00;1.30;;;20.20;99.90;;;;;;5020225;28;20431;-82
2023/09/23 11:31:34;;;;;;;3.47;2.20;;;20.60;99.90;;;;;;5025970;28;20447;-81
2023/09/23 11:40:06;;;;;;;1.17;1.07;;;20.10;99.90;;;;;;5023082;28;20554;-81
2023/09/23 11:42:33;;;;;;;1.27;0.90;;;19.70;99.90;;;;;;5027150;28;20534;-80
2023/09/23 11:45:01;;;;;;;0.80;0.80;;;19.60;99.90;;;;;;5028447;28;20479;-80
2023/09/23 11:47:28;;;;;;;1.23;1.13;;;19.00;99.90;;;;;;5030894;28;20552;-78
2023/09/23 11:49:55;;;;;;;2.73;1.20;;;19.20;99.90;;;;;;5028996;28;20932;-81
2023/09/23 11:52:22;;;;;;;1.50;1.40;;;19.70;99.90;;;;;;5027675;28;20497;-84
2023/09/23 11:54:48;;;;;;;2.27;1.60;;;19.50;99.90;;;;;;5026911;28;20976;-81
2023/09/23 11:57:15;;;;;;;3.10;1.30;;;19.60;99.90;;;;;;5030367;28;20842;-82
2023/09/23 11:59:42;;;;;;;1.73;1.40;;;20.00;99.90;;;;;;5022734;28;20466;-82
2023/09/23 12:02:10;;;;;;;2.50;1.20;;;19.80;99.90;;;;;;5026220;28;20649;-82
2023/09/23 12:04:37;;;;;;;0.90;0.90;;;19.90;99.90;;;;;;5018623;28;20494;-83
2023/09/23 12:07:04;;;;;;;1.77;1.13;;;19.60;99.90;;;;;;5027967;28;20451;-82
2023/09/23 12:09:34;;;;;;;1.20;1.03;;;19.60;99.90;;;;;;5029758;28;20447;-83
2023/09/23 12:12:00;;;;;;;2.40;0.97;;;19.90;99.90;;;;;;5021616;28;20458;-82
2023/09/23 12:14:27;;;;;;;1.83;0.97;;;20.50;99.90;;;;;;5020434;28;20460;-81
2023/09/23 12:16:54;;;;;;;1.27;1.13;;;21.30;99.90;;;;;;5021866;28;20788;-81
2023/09/23 12:19:22;;;;;;;3.33;1.70;;;21.50;99.90;;;;;;5031041;28;20446;-80
2023/09/23 12:21:49;;;;;;;2.30;1.20;;;21.90;99.90;;;;;;5031242;28;20498;-80
2023/09/23 12:24:15;;;;;;;2.40;1.10;;;21.80;99.90;;;;;;5027900;28;20936;-80
2023/09/23 12:26:42;;;;;;;1.33;1.00;;;21.50;99.90;;;;;;5026371;28;20455;-80
2023/09/23 12:29:09;;;;;;;2.67;1.10;;;21.00;99.90;;;;;;5030037;28;20442;-79
2023/09/23 12:31:37;;;;;;;1.93;1.37;;;20.90;99.90;;;;;;5031627;28;20446;-80
2023/09/23 12:34:03;;;;;;;1.00;0.90;;;21.00;99.90;;;;;;5028515;28;20451;-80
2023/09/23 12:36:31;;;;;;;1.93;1.10;;;21.10;99.90;;;;;;5027194;28;20447;-81
2023/09/23 12:38:58;;;;;;;2.60;0.93;;;20.80;99.90;;;;;;5027755;28;20991;-80
2023/09/23 12:41:25;;;;;;;1.70;1.00;;;20.70;99.90;;;;;;5029734;28;20551;-79
2023/09/23 12:43:53;;;;;;;2.67;1.20;;;20.60;99.90;;;;;;5029243;28;20821;-82
2023/09/23 12:46:19;;;;;;;1.43;1.00;;;20.20;99.90;;;;;;5018357;28;20467;-82
2023/09/23 12:48:46;;;;;;;1.10;1.00;;;19.80;99.90;;;;;;5030217;28;20583;-80
2023/09/23 12:51:14;;;;;;;1.67;1.20;;;19.90;99.90;;;;;;5020729;28;20531;-80
2023/09/23 12:53:43;;;;;;;1.83;1.70;;;19.60;99.90;;;;;;5028763;28;20449;-82
2023/09/23 12:56:11;;;;;;;2.77;2.50;;;19.40;99.90;;;;;;5025216;28;20495;-81
2023/09/23 12:58:39;;;;;;;2.03;1.90;;;19.40;99.90;;;;;;5026180;28;20447;-82
2023/09/23 13:01:06;;;;;;;4.50;2.07;;;19.60;99.90;;;;;;5026569;28;20543;-79
2023/09/23 13:03:33;;;;;;;1.90;1.80;;;20.10;99.90;;;;;;5027448;28;20852;-83
2023/09/23 13:06:00;;;;;;;3.93;2.10;;;19.90;99.90;;;;;;5025017;28;20463;-80